Peabody, Massachusetts
Current Conditions -  °F | °C
As of 8:25 PM on Wednesday 22 Oct 2014 (Local Time) from KBVY Reporting Station
Moderate Rain Moderate Rain  
Wind Chill: 51°   Ceiling: 700
Heat Index: 51°   Visibility: 2.5mi
Dew Point: 48°   Wind: 20mph
Humidity: 89%   Direction: 30°NNE
Pressure: 29.87"   Gusts: 39mph
Location:  42.53°N, 70.93°W
Report Text: KBVY 230025Z 03017G34KT 2 1/2SM RA BR BKN007 OVC011 11/09 A2987 RMK AO2 PK WND 05043/2355 P0007 T01060089
Loading
Personal Weather Stations






























Interactive Weather Map
Tropical Storm Tracking
New forecast layout! Learn more

10-Day Weather Forecast

Advertisements
Track Severe Weather on mobile